Time;durP1;ratioP1;P1;durP2;ratioP2;P2;SDS_P1;SDS_P2;PMS_P1;PMS_P2;Temp;Humidity;BMP_temperature;BMP_pressure;BME280_temperature;BME280_humidity;BME280_pressure;Samples;Min_cycle;Max_cycle;Signal;HPM_P1;HPM_P2
2022/07/08 00:01:26;;;;;;;6.45;4.88;;;;;;;21.17;59.70;100751.97;5076992;28;20479;-64
2022/07/08 00:03:52;;;;;;;5.65;5.05;;;;;;;21.04;60.34;100756.34;5076841;28;20067;-64
2022/07/08 00:06:17;;;;;;;5.70;4.68;;;;;;;21.04;60.18;100756.34;5076636;28;20048;-64
2022/07/08 00:08:44;;;;;;;5.18;4.68;;;;;;;21.01;60.21;100757.38;5075694;28;20108;-64
2022/07/08 00:11:10;;;;;;;5.20;4.65;;;;;;;21.02;60.33;100755.56;5057759;28;20028;-64
2022/07/08 00:13:36;;;;;;;4.88;4.25;;;;;;;21.15;59.84;100759.22;5042313;28;20123;-64
2022/07/08 00:16:01;;;;;;;4.05;3.60;;;;;;;21.15;59.91;100761.91;5072477;28;20436;-64
2022/07/08 00:18:27;;;;;;;4.85;4.35;;;;;;;21.02;60.09;100759.06;5049736;28;20020;-64
2022/07/08 00:20:52;;;;;;;5.28;3.75;;;;;;;20.99;60.24;100755.75;5058527;28;20036;-64
2022/07/08 00:23:18;;;;;;;4.65;4.25;;;;;;;21.00;60.27;100761.00;5076202;28;20103;-64
2022/07/08 00:25:43;;;;;;;4.68;4.22;;;;;;;21.00;60.21;100749.44;5096489;28;20039;-64
2022/07/08 00:28:09;;;;;;;4.55;4.15;;;;;;;21.08;60.08;100755.19;5078787;28;20548;-64
2022/07/08 00:30:34;;;;;;;5.15;4.65;;;;;;;21.11;60.08;100753.22;5078749;28;20468;-64
2022/07/08 00:32:59;;;;;;;4.65;4.15;;;;;;;21.24;59.53;100752.47;5096938;28;20523;-64
2022/07/08 00:35:25;;;;;;;4.40;4.00;;;;;;;21.29;59.31;100748.56;5078854;28;20468;-64
2022/07/08 00:37:50;;;;;;;5.05;3.60;;;;;;;21.37;59.07;100742.78;5041637;28;20039;-64
2022/07/08 00:40:16;;;;;;;5.00;4.03;;;;;;;21.45;58.80;100759.22;5076325;28;20024;-64
2022/07/08 00:42:41;;;;;;;4.72;3.97;;;;;;;21.43;59.09;100752.25;5058059;28;20028;-64
2022/07/08 00:45:07;;;;;;;5.07;3.45;;;;;;;21.42;59.05;100762.06;5076163;28;20031;-64
2022/07/08 00:47:32;;;;;;;3.95;3.55;;;;;;;21.32;59.22;100764.44;5058001;28;20032;-64
2022/07/08 00:49:58;;;;;;;3.95;3.42;;;;;;;21.19;59.61;100760.78;5075869;28;20035;-64
2022/07/08 00:52:24;;;;;;;3.60;3.30;;;;;;;21.17;59.64;100765.34;5075952;28;20043;-64
2022/07/08 00:54:50;;;;;;;3.30;3.00;;;;;;;21.31;59.15;100767.19;5041096;28;20102;-64
2022/07/08 00:57:15;;;;;;;4.72;3.83;;;;;;;21.35;58.90;100758.06;5074885;28;20029;-64
2022/07/08 00:59:42;;;;;;;3.28;2.97;;;;;;;21.41;58.83;100760.34;5075633;28;20020;-64
2022/07/08 01:02:08;;;;;;;5.75;4.00;;;;;;;21.36;59.09;100759.78;5075689;28;20028;-64
2022/07/08 01:04:34;;;;;;;4.88;3.03;;;;;;;21.48;58.73;100756.34;5057504;28;20460;-64
2022/07/08 01:07:00;;;;;;;4.03;3.63;;;;;;;21.47;58.64;100759.13;5057556;28;20025;-65
2022/07/08 01:09:26;;;;;;;3.95;3.30;;;;;;;21.54;58.49;100760.47;5075551;28;20081;-64
2022/07/08 01:11:51;;;;;;;3.53;3.08;;;;;;;21.64;58.06;100762.47;5092265;28;20455;-64
2022/07/08 01:14:17;;;;;;;4.00;3.40;;;;;;;21.66;58.29;100765.06;5078178;28;20397;-64
2022/07/08 01:16:43;;;;;;;3.33;2.95;;;;;;;21.54;58.33;100765.81;5066898;28;20016;-64
2022/07/08 01:19:09;;;;;;;3.67;3.28;;;;;;;21.42;58.72;100759.41;5057588;28;20031;-64
2022/07/08 01:21:34;;;;;;;3.28;2.97;;;;;;;21.40;58.79;100767.50;5075269;28;20028;-64
2022/07/08 01:23:59;;;;;;;3.78;3.08;;;;;;;21.27;59.29;100766.50;5075244;28;20024;-64
2022/07/08 01:26:25;;;;;;;4.28;3.20;;;;;;;21.34;59.04;100762.56;5057602;28;20044;-64
2022/07/08 01:28:51;;;;;;;3.08;2.78;;;;;;;21.43;58.67;100768.28;5057315;28;20367;-64
2022/07/08 01:31:16;;;;;;;4.85;3.33;;;;;;;21.26;59.13;100761.25;5075141;28;20024;-64
2022/07/08 01:33:42;;;;;;;4.75;3.80;;;;;;;21.30;59.06;100768.97;5075098;28;20021;-64
2022/07/08 01:36:08;;;;;;;4.93;3.08;;;;;;;21.28;59.15;100772.72;5057324;28;20082;-64
2022/07/08 01:38:34;;;;;;;5.68;4.20;;;;;;;21.25;59.61;100767.53;5056923;28;20029;-64
2022/07/08 01:40:59;;;;;;;3.85;3.33;;;;;;;21.30;59.17;100752.09;5074894;28;20036;-64
2022/07/08 01:43:25;;;;;;;5.25;3.90;;;;;;;21.22;59.42;100755.22;5056875;28;20035;-64
2022/07/08 01:45:51;;;;;;;5.22;4.05;;;;;;;21.24;59.61;100752.47;5074886;28;20028;-64
2022/07/08 01:48:16;;;;;;;5.32;4.18;;;;;;;21.17;59.69;100757.31;5056887;28;20029;-64
2022/07/08 01:50:42;;;;;;;4.53;3.65;;;;;;;21.12;60.12;100748.72;5056925;28;20463;-64
2022/07/08 01:53:07;;;;;;;4.28;3.53;;;;;;;21.12;59.87;100754.06;5056720;28;20833;-64
2022/07/08 01:55:33;;;;;;;7.25;3.85;;;;;;;21.14;60.29;100757.50;5074627;28;20044;-64
2022/07/08 01:57:58;;;;;;;5.57;3.72;;;;;;;21.12;60.17;100757.59;5056212;28;20040;-64
2022/07/08 02:00:24;;;;;;;5.25;4.50;;;;;;;20.95;60.84;100751.53;5056807;28;20032;-64
2022/07/08 02:02:49;;;;;;;5.05;3.85;;;;;;;21.00;60.40;100761.00;5074531;28;20075;-64
2022/07/08 02:05:16;;;;;;;3.55;3.25;;;;;;;20.84;61.05;100750.34;5056557;28;20032;-64
2022/07/08 02:07:42;;;;;;;5.65;3.45;;;;;;;20.96;60.64;100747.91;5056089;28;20380;-64
2022/07/08 02:10:09;;;;;;;5.57;4.13;;;;;;;21.20;59.88;100750.94;5056619;28;20123;-64
2022/07/08 02:12:34;;;;;;;3.72;3.08;;;;;;;21.34;59.57;100759.88;5056494;28;20025;-64
2022/07/08 02:15:02;;;;;;;4.03;2.83;;;;;;;21.47;59.17;100756.47;5074426;28;20072;-64
2022/07/08 02:17:37;;;;;;;5.95;3.40;;;;;;;21.56;58.97;100750.53;5056020;28;20025;-64
2022/07/08 02:20:08;;;;;;;4.28;3.30;;;;;;;21.64;58.55;100756.28;5074224;28;20025;-64
2022/07/08 02:22:34;;;;;;;2.30;2.10;;;;;;;21.69;58.17;100756.84;5074452;28;20032;-64
2022/07/08 02:25:00;;;;;;;5.38;3.53;;;;;;;21.91;57.79;100760.88;5074227;28;20078;-64
2022/07/08 02:27:25;;;;;;;4.85;3.10;;;;;;;22.03;57.60;100758.28;5074267;28;20107;-64
2022/07/08 02:29:50;;;;;;;4.00;2.97;;;;;;;22.03;57.57;100762.78;5055987;28;20029;-64
2022/07/08 02:32:16;;;;;;;4.72;3.63;;;;;;;22.04;57.44;100753.78;5073925;28;20035;-65
2022/07/08 02:34:42;;;;;;;3.95;3.33;;;;;;;21.91;57.87;100758.19;5055957;28;20032;-64
2022/07/08 02:37:08;;;;;;;3.28;2.97;;;;;;;21.88;57.75;100762.78;5056071;28;20023;-65
2022/07/08 02:39:33;;;;;;;3.63;3.33;;;;;;;21.82;58.00;100768.53;5073794;28;20024;-64
2022/07/08 02:41:59;;;;;;;3.97;3.28;;;;;;;21.76;58.27;100771.56;5056131;28;20403;-64
2022/07/08 02:44:25;;;;;;;5.43;3.33;;;;;;;21.78;58.06;100769.66;5055828;28;20364;-64
2022/07/08 02:46:50;;;;;;;5.18;3.92;;;;;;;21.80;58.23;100773.09;5072920;28;20076;-64
2022/07/08 02:49:15;;;;;;;4.90;4.03;;;;;;;21.72;58.76;100770.03;5055046;28;20374;-64
2022/07/08 02:51:41;;;;;;;5.20;3.92;;;;;;;21.60;58.91;100766.28;5073869;28;20043;-64
2022/07/08 02:54:06;;;;;;;6.13;4.88;;;;;;;21.35;59.41;100772.28;5055356;28;20036;-63
2022/07/08 02:56:33;;;;;;;3.97;3.40;;;;;;;21.36;59.53;100762.44;5039313;28;20032;-64
2022/07/08 02:59:00;;;;;;;5.10;4.57;;;;;;;21.34;59.71;100770.56;5054974;28;20068;-64
2022/07/08 03:01:25;;;;;;;6.10;3.97;;;;;;;21.40;59.70;100772.88;5055434;28;20387;-64
2022/07/08 03:03:53;;;;;;;6.55;3.85;;;;;;;21.39;59.79;100771.16;5073332;28;20025;-64
2022/07/08 03:06:19;;;;;;;5.32;3.90;;;;;;;21.43;59.29;100771.81;5073610;28;20455;-64
2022/07/08 03:08:45;;;;;;;5.07;3.90;;;;;;;21.48;59.41;100766.19;5055500;28;20086;-64
2022/07/08 03:11:10;;;;;;;5.78;4.50;;;;;;;21.53;59.29;100777.47;5066467;28;20063;-64
2022/07/08 03:13:36;;;;;;;5.05;4.55;;;;;;;21.42;59.59;100782.59;5085235;28;20442;-64
2022/07/08 03:16:03;;;;;;;4.47;4.07;;;;;;;21.44;59.45;100789.56;5073398;28;20032;-64
2022/07/08 03:18:29;;;;;;;4.57;3.30;;;;;;;21.58;58.96;100778.03;5055307;28;20024;-64
2022/07/08 03:20:54;;;;;;;4.80;3.10;;;;;;;21.50;59.22;100780.31;5054748;28;20414;-64
2022/07/08 03:23:19;;;;;;;4.20;3.20;;;;;;;21.63;58.74;100792.00;5055311;28;20127;-64
2022/07/08 03:25:45;;;;;;;5.32;3.45;;;;;;;21.69;58.66;100786.25;5055498;28;20437;-65
2022/07/08 03:28:10;;;;;;;3.97;3.42;;;;;;;21.81;58.07;100787.31;5055375;28;20035;-64
2022/07/08 03:30:36;;;;;;;6.57;3.83;;;;;;;21.97;57.81;100782.72;5073345;28;20033;-64
2022/07/08 03:33:01;;;;;;;3.70;2.88;;;;;;;22.10;57.15;100783.69;5073215;28;20032;-64
2022/07/08 03:35:27;;;;;;;5.00;3.50;;;;;;;22.25;57.02;100797.06;5038752;28;20091;-64
2022/07/08 03:37:52;;;;;;;3.08;2.78;;;;;;;22.35;56.74;100799.06;5072937;28;20028;-64
2022/07/08 03:43:01;;;;;;;5.00;3.63;;;;;;;22.27;56.85;100806.72;5073458;28;20093;-64
2022/07/08 03:45:27;;;;;;;4.28;3.42;;;;;;;22.30;57.00;100809.22;5072921;28;20020;-64
2022/07/08 03:47:52;;;;;;;5.65;4.35;;;;;;;22.02;57.77;100807.41;5055034;28;20028;-65
2022/07/08 03:50:19;;;;;;;4.25;3.58;;;;;;;22.01;57.92;100802.13;5055297;28;20163;-64
2022/07/08 03:52:45;;;;;;;5.32;4.07;;;;;;;21.93;58.15;100807.09;5055446;28;20056;-64
2022/07/08 03:55:11;;;;;;;7.40;5.35;;;;;;;21.94;58.56;100801.63;5038444;28;20089;-64
2022/07/08 03:57:37;;;;;;;5.85;4.93;;;;;;;21.93;58.51;100804.41;5054800;28;20379;-64
2022/07/08 04:00:08;;;;;;;7.13;5.57;;;;;;;21.77;58.85;100797.34;5054961;28;20029;-65
2022/07/08 04:02:34;;;;;;;7.10;4.28;;;;;;;21.73;59.07;100795.81;5072998;28;20029;-64
2022/07/08 04:05:00;;;;;;;7.22;5.85;;;;;;;21.95;58.60;100813.22;5055024;28;20037;-64
2022/07/08 04:07:25;;;;;;;6.45;4.57;;;;;;;22.11;58.06;100819.34;5055248;28;20367;-64
2022/07/08 04:09:51;;;;;;;5.80;4.70;;;;;;;21.91;58.69;100803.69;5072988;28;20360;-64
2022/07/08 04:12:16;;;;;;;7.03;5.50;;;;;;;21.77;59.12;100809.84;5072667;28;20025;-63
2022/07/08 04:14:42;;;;;;;4.68;3.45;;;;;;;21.87;58.76;100811.88;5055101;28;20448;-64
2022/07/08 04:17:07;;;;;;;6.85;5.50;;;;;;;21.81;59.05;100820.28;5072877;28;20456;-64
2022/07/08 04:19:33;;;;;;;3.88;3.47;;;;;;;22.02;58.57;100817.22;5072815;28;20082;-64
2022/07/08 04:21:58;;;;;;;6.10;4.95;;;;;;;22.11;58.48;100819.34;5072817;28;20047;-64
2022/07/08 04:24:23;;;;;;;5.90;4.85;;;;;;;22.18;58.30;100818.00;5072854;28;20033;-64
2022/07/08 04:26:49;;;;;;;4.85;3.83;;;;;;;22.20;58.00;100817.91;5072679;28;20447;-64
2022/07/08 04:29:14;;;;;;;7.18;5.10;;;;;;;22.27;58.04;100828.16;5054816;28;20036;-64
2022/07/08 04:31:40;;;;;;;6.20;5.32;;;;;;;22.37;57.69;100829.25;5073038;28;20040;-64
2022/07/08 04:34:05;;;;;;;4.07;3.67;;;;;;;22.48;57.28;100825.06;5075983;28;20028;-65
2022/07/08 04:36:31;;;;;;;4.03;3.58;;;;;;;22.54;57.18;100830.00;5076343;28;20077;-65
2022/07/08 04:38:56;;;;;;;4.72;4.18;;;;;;;22.58;57.33;100835.09;5076044;28;20078;-65
2022/07/08 04:41:21;;;;;;;5.43;4.93;;;;;;;22.48;57.65;100838.44;5075978;28;20037;-65
2022/07/08 04:43:47;;;;;;;6.47;5.32;;;;;;;22.35;58.08;100836.53;5075685;28;20107;-65
2022/07/08 04:46:13;;;;;;;6.00;4.82;;;;;;;22.44;57.84;100836.91;5075745;28;20430;-64
2022/07/08 04:48:41;;;;;;;4.47;3.72;;;;;;;22.55;57.08;100823.72;5058526;28;20071;-64
2022/07/08 04:51:07;;;;;;;6.10;4.95;;;;;;;22.81;56.70;100833.56;5058136;28;20067;-64
2022/07/08 04:53:32;;;;;;;6.97;4.10;;;;;;;22.79;56.58;100838.19;5076029;28;20059;-64
2022/07/08 04:55:58;;;;;;;5.07;4.15;;;;;;;22.76;56.79;100845.56;5075462;28;20064;-64
2022/07/08 04:58:23;;;;;;;6.60;5.20;;;;;;;22.80;56.85;100839.88;5075739;28;20475;-64
2022/07/08 05:00:48;;;;;;;5.30;4.80;;;;;;;22.86;56.45;100836.81;5075946;28;20517;-64
2022/07/08 05:03:14;;;;;;;4.32;3.92;;;;;;;23.01;55.83;100839.47;5075713;28;20032;-64
2022/07/08 05:05:39;;;;;;;4.65;3.90;;;;;;;23.16;55.64;100838.44;5057976;28;20056;-64
2022/07/08 05:08:05;;;;;;;7.45;5.45;;;;;;;22.94;56.61;100839.03;5075611;28;20416;-65
2022/07/08 05:10:31;;;;;;;5.05;4.35;;;;;;;23.10;56.18;100836.19;5063212;28;20458;-64
2022/07/08 05:12:57;;;;;;;5.03;3.72;;;;;;;23.12;55.80;100839.63;5095741;28;20505;-64
2022/07/08 05:15:26;;;;;;;5.50;4.15;;;;;;;23.28;55.28;100831.41;5095900;28;20032;-64
2022/07/08 05:17:55;;;;;;;4.53;3.60;;;;;;;23.18;55.46;100832.97;5077478;28;20016;-64
2022/07/08 05:20:21;;;;;;;6.63;5.05;;;;;;;22.94;56.60;100835.47;5077802;28;20036;-64
2022/07/08 05:22:47;;;;;;;4.55;4.13;;;;;;;22.95;56.65;100831.84;5077677;28;20439;-65
2022/07/08 05:25:13;;;;;;;6.07;4.45;;;;;;;22.75;57.38;100833.13;5095468;28;20085;-64
2022/07/08 05:27:39;;;;;;;4.03;3.63;;;;;;;22.50;57.85;100844.53;5060568;28;20085;-64
2022/07/08 05:30:07;;;;;;;5.45;4.35;;;;;;;22.49;58.52;100840.16;5077288;28;20020;-65
2022/07/08 05:32:33;;;;;;;4.35;3.90;;;;;;;22.50;58.14;100853.47;5094476;28;20032;-64
2022/07/08 05:34:58;;;;;;;4.72;4.22;;;;;;;22.51;58.66;100859.66;5077159;28;20456;-64
2022/07/08 05:37:24;;;;;;;5.90;4.30;;;;;;;22.47;58.62;100850.13;5095113;28;20028;-64
2022/07/08 05:39:49;;;;;;;3.97;2.80;;;;;;;22.51;57.98;100852.50;5060391;28;20028;-64
2022/07/08 05:42:15;;;;;;;3.55;3.25;;;;;;;22.62;58.01;100851.78;5076888;28;20028;-64
2022/07/08 05:44:40;;;;;;;3.90;3.60;;;;;;;22.82;57.76;100854.06;5060040;28;20122;-64
2022/07/08 05:47:07;;;;;;;6.10;4.18;;;;;;;22.73;58.14;100848.41;5095244;28;20124;-64
2022/07/08 05:49:34;;;;;;;5.22;3.65;;;;;;;22.53;58.70;100852.38;5079698;28;20423;-65
2022/07/08 05:52:00;;;;;;;6.18;4.20;;;;;;;22.60;58.22;100845.69;5056872;28;20032;-65
2022/07/08 05:54:26;;;;;;;4.97;3.75;;;;;;;22.61;58.53;100858.09;5053290;28;20052;-64
2022/07/08 05:56:51;;;;;;;3.53;2.85;;;;;;;22.64;58.13;100849.88;5039869;28;20453;-64
2022/07/08 05:59:17;;;;;;;4.38;3.42;;;;;;;22.66;58.36;100853.34;5061994;28;20059;-64
2022/07/08 06:01:44;;;;;;;5.70;3.88;;;;;;;22.67;58.55;100849.69;5054567;28;20029;-64
2022/07/08 06:04:09;;;;;;;6.35;4.28;;;;;;;22.74;58.37;100853.69;5053326;28;20039;-64
2022/07/08 06:06:35;;;;;;;4.70;3.67;;;;;;;22.81;58.64;100857.66;5040007;28;20033;-65
2022/07/08 06:09:00;;;;;;;4.55;2.88;;;;;;;22.88;58.27;100850.09;5034794;28;20033;-64
2022/07/08 06:11:25;;;;;;;4.88;3.65;;;;;;;23.13;57.91;100857.41;5053943;28;20053;-66
2022/07/08 06:13:51;;;;;;;4.93;3.25;;;;;;;22.85;58.54;100859.19;5053220;28;20179;-65
2022/07/08 06:16:16;;;;;;;7.35;3.03;;;;;;;22.98;58.25;100863.78;5051314;28;20074;-65
2022/07/08 06:18:42;;;;;;;4.53;3.40;;;;;;;23.01;58.58;100858.22;5054216;28;20372;-65
2022/07/08 06:21:08;;;;;;;3.10;2.63;;;;;;;23.02;58.78;100859.94;5034884;28;20490;-65
2022/07/08 06:23:36;;;;;;;3.38;3.03;;;;;;;23.01;59.38;100866.25;5043559;28;20447;-65
2022/07/08 06:26:01;;;;;;;3.38;2.80;;;;;;;23.09;59.11;100869.28;5030821;28;20094;-64
2022/07/08 06:28:27;;;;;;;4.18;2.25;;;;;;;23.16;58.66;100870.59;5040169;28;20080;-64
2022/07/08 06:30:53;;;;;;;3.25;2.63;;;;;;;23.26;59.19;100870.84;5023301;28;20400;-65
2022/07/08 06:33:18;;;;;;;2.67;2.30;;;;;;;23.16;59.28;100870.59;5041390;28;20029;-65
2022/07/08 06:35:43;;;;;;;2.30;2.10;;;;;;;23.13;59.32;100870.81;5038626;28;20033;-65
2022/07/08 06:38:09;;;;;;;2.47;2.00;;;;;;;23.20;59.12;100871.25;5038617;28;20461;-64
2022/07/08 06:40:35;;;;;;;2.33;1.70;;;;;;;22.77;60.63;100864.19;5039836;28;20140;-65
2022/07/08 06:43:00;;;;;;;1.88;1.60;;;;;;;22.69;61.48;100873.69;5045064;28;20040;-65
2022/07/08 06:45:27;;;;;;;1.60;1.40;;;;;;;22.83;60.76;100870.97;5046908;28;20033;-64
2022/07/08 06:47:53;;;;;;;2.15;1.40;;;;;;;22.77;60.97;100879.41;5038344;28;20037;-65
2022/07/08 06:50:18;;;;;;;1.27;0.88;;;;;;;22.62;61.41;100883.91;5044229;28;20491;-65
2022/07/08 06:52:43;;;;;;;1.85;1.20;;;;;;;23.11;59.72;100881.63;5038174;28;20059;-65
2022/07/08 06:55:09;;;;;;;1.60;1.17;;;;;;;23.15;59.77;100879.63;5051498;28;20045;-65
2022/07/08 06:57:35;;;;;;;2.03;1.17;;;;;;;23.34;59.71;100895.34;5049604;28;20402;-65
2022/07/08 07:00:38;;;;;;;2.40;1.17;;;;;;;23.01;61.37;100885.03;5041591;28;20025;-65
2022/07/08 07:03:03;;;;;;;0.98;0.80;;;;;;;23.42;59.31;100889.44;5055908;28;20072;-65
2022/07/08 07:05:29;;;;;;;2.92;1.33;;;;;;;23.43;59.09;100885.81;5068012;28;20123;-65
2022/07/08 07:07:54;;;;;;;1.63;1.08;;;;;;;23.68;58.73;100902.00;5066206;28;20459;-65
2022/07/08 07:10:19;;;;;;;1.73;1.00;;;;;;;23.34;59.34;100887.31;5042017;28;20052;-65
2022/07/08 07:12:45;;;;;;;1.27;0.70;;;;;;;23.65;58.27;100878.00;5038174;28;20039;-65
2022/07/08 07:15:10;;;;;;;1.20;1.00;;;;;;;24.25;56.80;100884.63;5054862;28;20056;-65
2022/07/08 07:17:39;;;;;;;1.20;0.70;;;;;;;24.66;55.86;100896.97;5049185;28;20039;-65
2022/07/08 07:20:06;;;;;;;2.75;1.00;;;;;;;24.34;56.63;100886.66;5037226;28;20056;-65
2022/07/08 07:22:31;;;;;;;2.58;1.10;;;;;;;24.70;55.85;100896.63;5039263;28;20052;-65
2022/07/08 07:24:56;;;;;;;4.93;1.30;;;;;;;24.63;55.65;100884.59;5048225;28;20048;-65
2022/07/08 07:27:22;;;;;;;1.25;0.80;;;;;;;24.47;55.55;100886.69;5061278;28;20429;-65
2022/07/08 07:29:48;;;;;;;1.67;0.77;;;;;;;23.67;57.61;100888.69;5044811;28;20041;-64
2022/07/08 07:32:13;;;;;;;1.30;0.75;;;;;;;23.44;58.38;100903.63;5039885;28;20048;-65
2022/07/08 07:34:38;;;;;;;2.50;0.85;;;;;;;22.86;60.02;100901.13;5065743;28;20521;-65
2022/07/08 07:37:04;;;;;;;3.15;0.98;;;;;;;22.84;59.92;100894.97;5037514;28;20116;-65
2022/07/08 07:39:29;;;;;;;3.78;0.98;;;;;;;23.15;59.19;100897.53;5056198;28;20036;-65
2022/07/08 07:41:55;;;;;;;3.40;0.90;;;;;;;23.38;58.61;100904.91;5018307;28;20131;-65
2022/07/08 07:44:20;;;;;;;4.13;0.88;;;;;;;23.79;57.50;100901.25;5063623;28;20159;-65
2022/07/08 07:46:46;;;;;;;2.50;0.80;;;;;;;23.25;58.77;100910.19;5059592;28;20021;-65
2022/07/08 07:49:13;;;;;;;1.30;0.77;;;;;;;23.10;59.28;100920.13;5046412;28;20036;-64
2022/07/08 07:51:38;;;;;;;2.35;0.70;;;;;;;23.40;58.20;100913.69;5043783;28;20032;-65
2022/07/08 07:54:04;;;;;;;3.47;0.60;;;;;;;23.50;57.57;100919.28;5025330;28;20516;-65
2022/07/08 07:56:29;;;;;;;2.03;0.80;;;;;;;23.21;58.24;100900.63;5055310;28;20452;-65
2022/07/08 07:58:55;;;;;;;2.25;0.73;;;;;;;22.67;59.61;100905.06;5058297;28;20036;-65
2022/07/08 08:01:20;;;;;;;2.05;0.80;;;;;;;22.56;59.35;100909.28;5037361;28;20041;-65
2022/07/08 08:03:46;;;;;;;1.23;0.70;;;;;;;22.28;60.57;100910.16;5056394;28;20048;-65
2022/07/08 08:06:13;;;;;;;2.53;0.63;;;;;;;22.51;60.11;100915.91;5067942;28;20045;-66
2022/07/08 08:08:39;;;;;;;2.45;0.60;;;;;;;22.91;59.31;100916.06;5032418;28;20033;-65
2022/07/08 08:11:07;;;;;;;1.38;0.70;;;;;;;22.72;59.72;100916.34;5034488;28;20487;-65
2022/07/08 08:13:32;;;;;;;0.80;0.55;;;;;;;23.01;59.29;100925.22;5054600;28;20463;-65
2022/07/08 08:15:58;;;;;;;2.80;0.50;;;;;;;22.83;59.72;100928.09;5039399;28;20028;-65
2022/07/08 08:18:26;;;;;;;0.90;0.65;;;;;;;22.87;59.90;100920.72;5038706;28;20079;-65
2022/07/08 08:20:52;;;;;;;1.15;0.60;;;;;;;22.80;60.18;100925.59;5036244;28;20115;-65
2022/07/08 08:23:17;;;;;;;0.82;0.50;;;;;;;22.24;61.12;100934.53;5052702;28;20115;-65
2022/07/08 08:25:43;;;;;;;2.40;0.60;;;;;;;22.11;61.74;100921.03;5056699;28;20081;-65
2022/07/08 08:28:08;;;;;;;1.42;0.68;;;;;;;22.51;59.85;100923.94;5060870;28;20116;-65
2022/07/08 08:30:34;;;;;;;1.25;0.45;;;;;;;22.55;59.02;100923.63;5063913;28;20058;-65
2022/07/08 08:32:59;;;;;;;1.45;0.60;;;;;;;22.67;58.92;100929.19;5064647;28;20452;-66
2022/07/08 08:35:25;;;;;;;3.22;0.80;;;;;;;23.02;58.06;100930.50;5059198;28;20033;-65
2022/07/08 08:37:51;;;;;;;3.13;1.00;;;;;;;23.25;57.46;100930.78;5040725;28;20041;-66
2022/07/08 08:40:20;;;;;;;2.38;0.80;;;;;;;23.51;56.23;100929.06;5058058;28;20384;-65
2022/07/08 08:42:46;;;;;;;1.55;0.90;;;;;;;23.54;56.09;100935.09;5044020;28;20028;-65
2022/07/08 08:45:11;;;;;;;1.90;0.60;;;;;;;24.06;54.58;100942.31;5054687;28;20119;-65
2022/07/08 08:47:37;;;;;;;1.70;0.50;;;;;;;23.35;55.00;100940.81;5052727;28;20068;-65
2022/07/08 08:52:52;;;;;;;1.02;0.40;;;;;;;23.47;55.35;100946.31;5062743;28;20438;-65
2022/07/08 08:55:26;;;;;;;1.00;0.40;;;;;;;23.53;55.39;100945.91;5036382;28;20384;-63
2022/07/08 08:57:55;;;;;;;2.42;0.60;;;;;;;23.06;56.50;100939.16;5045267;28;20037;-65
2022/07/08 09:00:21;;;;;;;2.08;0.40;;;;;;;23.13;56.30;100945.00;5049259;28;20029;-65
2022/07/08 09:02:46;;;;;;;3.17;0.32;;;;;;;22.97;57.72;100953.16;5034882;28;20029;-65
2022/07/08 09:05:13;;;;;;;1.60;0.50;;;;;;;22.60;58.38;100953.66;5037689;28;20037;-65
2022/07/08 09:07:43;;;;;;;1.23;0.43;;;;;;;22.19;58.88;100955.38;5049777;28;20025;-64
2022/07/08 09:10:09;;;;;;;2.05;0.50;;;;;;;22.32;59.23;100957.19;5042885;28;20060;-65
2022/07/08 09:12:35;;;;;;;0.88;0.20;;;;;;;21.80;59.37;100973.69;5034103;28;20029;-65
2022/07/08 09:15:01;;;;;;;1.75;0.40;;;;;;;22.25;58.75;100965.69;5035554;28;20029;-65
2022/07/08 09:17:27;;;;;;;1.58;0.30;;;;;;;22.04;59.12;100994.59;5041493;28;20086;-65
2022/07/08 09:19:53;;;;;;;1.25;0.20;;;;;;;22.16;59.60;100983.19;5037401;28;20033;-65
2022/07/08 09:22:23;;;;;;;0.93;0.32;;;;;;;21.93;61.41;100986.34;5037675;28;20454;-63
2022/07/08 09:24:49;;;;;;;0.63;0.28;;;;;;;22.25;60.88;100993.31;5043555;28;20030;-65
2022/07/08 09:27:15;;;;;;;1.10;0.40;;;;;;;22.08;62.13;101006.81;5046770;28;20112;-65
2022/07/08 09:29:58;;;;;;;0.50;0.30;;;;;;;22.18;63.42;100981.25;5048907;28;20500;-65
2022/07/08 09:32:24;;;;;;;1.20;0.20;;;;;;;22.16;62.29;100991.19;5032600;28;20033;-65
2022/07/08 09:34:49;;;;;;;0.80;0.20;;;;;;;21.96;62.34;100983.47;5049415;28;20031;-65
2022/07/08 09:37:16;;;;;;;0.52;0.30;;;;;;;22.21;61.71;100974.88;5051402;28;20032;-65
2022/07/08 09:39:43;;;;;;;0.40;0.20;;;;;;;22.72;60.24;100978.81;5032763;28;20407;-65
2022/07/08 09:42:10;;;;;;;1.55;0.30;;;;;;;22.56;60.39;100983.41;5046000;28;20033;-65
2022/07/08 09:44:37;;;;;;;0.43;0.20;;;;;;;22.48;60.03;100978.53;5047740;28;20036;-65
2022/07/08 09:47:13;;;;;;;0.93;0.40;;;;;;;22.53;58.25;100995.16;5050207;28;20021;-65
2022/07/08 09:49:47;;;;;;;0.93;0.30;;;;;;;22.76;58.11;100979.47;5050081;28;20021;-65
2022/07/08 09:52:23;;;;;;;1.02;0.30;;;;;;;22.68;58.34;100979.09;5035395;28;20025;-65
2022/07/08 09:55:03;;;;;;;0.95;0.40;;;;;;;22.98;57.17;100989.72;5046089;28;20076;-65
2022/07/08 09:57:30;;;;;;;2.38;0.30;;;;;;;22.96;57.32;100992.50;5042141;28;20090;-67
2022/07/08 09:59:58;;;;;;;0.98;0.43;;;;;;;23.03;56.83;100985.81;5049465;28;20033;-65
2022/07/08 10:02:24;;;;;;;1.65;0.30;;;;;;;23.21;56.12;100996.28;5065868;28;20060;-65
2022/07/08 10:04:50;;;;;;;4.15;0.50;;;;;;;22.25;58.06;100995.13;5058611;28;20063;-64
2022/07/08 10:07:16;;;;;;;0.93;0.35;;;;;;;22.33;58.53;100990.16;5067071;28;20111;-65
2022/07/08 10:09:41;;;;;;;1.23;0.30;;;;;;;22.77;57.62;100984.72;5075737;28;20032;-65
2022/07/08 10:12:14;;;;;;;1.05;0.30;;;;;;;21.96;59.41;101008.41;5076137;28;20031;-65
2022/07/08 10:14:39;;;;;;;;;;;;;;;21.66;58.76;101011.06;5094771;28;20032;-65
2022/07/08 10:17:07;;;;;;;2.88;0.30;;;;;;;21.91;58.68;100993.59;5093970;28;19916;-65
2022/07/08 10:19:40;;;;;;;0.60;0.30;;;;;;;21.88;59.01;101006.19;5039475;28;20024;-64
2022/07/08 10:22:08;;;;;;;2.25;0.32;;;;;;;21.81;59.13;100999.47;5061793;28;20039;-65
2022/07/08 10:24:39;;;;;;;1.38;0.28;;;;;;;21.46;60.61;100997.97;5066683;28;20033;-65
2022/07/08 10:27:05;;;;;;;1.50;0.50;;;;;;;21.42;60.81;101007.13;5049150;28;20616;-64
2022/07/08 10:29:33;;;;;;;0.93;0.40;;;;;;;22.21;58.31;101001.63;5057231;28;20076;-65
2022/07/08 10:32:00;;;;;;;0.40;0.35;;;;;;;22.05;59.23;101001.66;5037981;28;20420;-65
2022/07/08 10:34:31;;;;;;;0.73;0.30;;;;;;;22.36;58.06;101001.56;5039128;28;20036;-64
2022/07/08 10:36:56;;;;;;;1.23;0.40;;;;;;;22.33;58.44;101001.72;5038278;28;20321;-65
2022/07/08 10:39:30;;;;;;;1.08;0.45;;;;;;;22.52;57.99;100998.81;5022583;28;20055;-65
2022/07/08 10:41:57;;;;;;;2.63;0.52;;;;;;;22.61;57.06;100998.22;5026704;28;20045;-66
2022/07/08 10:44:45;;;;;;;1.10;0.50;;;;;;;22.82;56.61;101009.44;5041728;28;20028;-65
2022/07/08 10:47:20;;;;;;;0.55;0.30;;;;;;;22.40;57.48;101012.94;5037624;28;20044;-64
2022/07/08 10:49:48;;;;;;;2.10;0.65;;;;;;;22.49;57.33;101004.34;5062904;28;20029;-65
2022/07/08 10:52:15;;;;;;;0.68;0.40;;;;;;;22.92;56.39;101004.38;5046312;28;20020;-65
2022/07/08 10:54:42;;;;;;;0.38;0.30;;;;;;;23.20;54.85;101013.34;5043079;28;20096;-65
2022/07/08 10:57:13;;;;;;;1.25;0.38;;;;;;;23.20;53.47;101006.16;5027848;28;20049;-65
2022/07/08 10:59:40;;;;;;;1.55;0.40;;;;;;;23.21;53.52;101015.91;5041677;28;20046;-64
2022/07/08 11:02:09;;;;;;;1.17;0.32;;;;;;;23.46;53.61;101014.31;5044892;28;20036;-65
2022/07/08 11:04:35;;;;;;;2.10;0.50;;;;;;;23.07;54.32;101014.13;5040489;28;20021;-65
2022/07/08 11:07:24;;;;;;;0.82;0.30;;;;;;;22.01;54.95;101022.38;5040869;28;20036;-65
2022/07/08 11:10:01;;;;;;;1.98;0.50;;;;;;;22.13;55.05;101020.81;5035365;28;20360;-65
2022/07/08 11:12:32;;;;;;;0.98;0.50;;;;;;;21.73;56.37;101030.28;5043674;28;20040;-64
2022/07/08 11:15:00;;;;;;;1.30;0.32;;;;;;;23.09;53.56;101014.00;5049847;28;20411;-64
2022/07/08 11:17:28;;;;;;;1.15;0.38;;;;;;;23.75;52.18;101015.13;5024582;28;20041;-65
2022/07/08 11:19:56;;;;;;;2.38;0.40;;;;;;;22.65;53.83;101017.63;5048214;28;20078;-65
2022/07/08 11:22:23;;;;;;;2.03;0.50;;;;;;;23.06;53.15;101011.53;5042774;28;20020;-65
2022/07/08 11:24:49;;;;;;;0.60;0.30;;;;;;;23.66;51.66;101021.06;5032981;28;20037;-65
2022/07/08 11:27:16;;;;;;;0.75;0.57;;;;;;;23.72;51.53;101021.53;5033489;28;20515;-65